sensor_id;sensor_type;location;lat;lon;timestamp;temperature;humidity
14061;DHT22;7105;43.616;1.434;2023-06-10T00:02:10;17.40;99.90
14061;DHT22;7105;43.616;1.434;2023-06-10T00:04:36;17.40;99.90
14061;DHT22;7105;43.616;1.434;2023-06-10T00:07:04;17.40;99.90
14061;DHT22;7105;43.616;1.434;2023-06-10T00:09:37;17.40;99.90
14061;DHT22;7105;43.616;1.434;2023-06-10T00:12:07;17.40;99.90
14061;DHT22;7105;43.616;1.434;2023-06-10T00:14:35;17.40;99.90
14061;DHT22;7105;43.616;1.434;2023-06-10T00:17:00;17.40;99.90
14061;DHT22;7105;43.616;1.434;2023-06-10T00:19:26;17.40;99.90
14061;DHT22;7105;43.616;1.434;2023-06-10T00:21:56;17.40;99.90
14061;DHT22;7105;43.616;1.434;2023-06-10T00:24:21;17.40;99.90
14061;DHT22;7105;43.616;1.434;2023-06-10T00:26:47;17.40;99.90
14061;DHT22;7105;43.616;1.434;2023-06-10T00:29:14;17.40;99.90
14061;DHT22;7105;43.616;1.434;2023-06-10T00:31:40;17.40;99.90
14061;DHT22;7105;43.616;1.434;2023-06-10T00:34:09;17.40;99.90
14061;DHT22;7105;43.616;1.434;2023-06-10T00:36:34;17.50;99.90
14061;DHT22;7105;43.616;1.434;2023-06-10T00:39:01;17.40;99.90
14061;DHT22;7105;43.616;1.434;2023-06-10T00:41:27;17.40;99.90
14061;DHT22;7105;43.616;1.434;2023-06-10T00:43:52;17.40;99.90
14061;DHT22;7105;43.616;1.434;2023-06-10T00:46:18;17.30;99.90
14061;DHT22;7105;43.616;1.434;2023-06-10T00:48:45;17.30;99.90
14061;DHT22;7105;43.616;1.434;2023-06-10T00:51:12;17.30;99.90
14061;DHT22;7105;43.616;1.434;2023-06-10T00:53:40;17.30;99.90
14061;DHT22;7105;43.616;1.434;2023-06-10T00:56:07;17.40;99.90
14061;DHT22;7105;43.616;1.434;2023-06-10T00:58:33;17.40;99.90
14061;DHT22;7105;43.616;1.434;2023-06-10T01:01:00;17.40;99.90
14061;DHT22;7105;43.616;1.434;2023-06-10T01:03:26;17.40;99.90
14061;DHT22;7105;43.616;1.434;2023-06-10T01:05:59;17.40;99.90
14061;DHT22;7105;43.616;1.434;2023-06-10T01:11:19;17.30;99.90
14061;DHT22;7105;43.616;1.434;2023-06-10T01:13:50;17.30;99.90
14061;DHT22;7105;43.616;1.434;2023-06-10T01:16:19;17.40;99.90
14061;DHT22;7105;43.616;1.434;2023-06-10T01:18:45;17.30;99.90
14061;DHT22;7105;43.616;1.434;2023-06-10T01:21:23;17.30;99.90
14061;DHT22;7105;43.616;1.434;2023-06-10T01:23:51;17.30;99.90
14061;DHT22;7105;43.616;1.434;2023-06-10T01:26:17;17.30;99.90
14061;DHT22;7105;43.616;1.434;2023-06-10T01:28:58;17.30;99.90
14061;DHT22;7105;43.616;1.434;2023-06-10T01:31:38;17.30;99.90
14061;DHT22;7105;43.616;1.434;2023-06-10T01:34:15;17.30;99.90
14061;DHT22;7105;43.616;1.434;2023-06-10T01:36:47;17.30;99.90
14061;DHT22;7105;43.616;1.434;2023-06-10T01:39:16;17.20;99.90
14061;DHT22;7105;43.616;1.434;2023-06-10T01:41:42;17.20;99.90
14061;DHT22;7105;43.616;1.434;2023-06-10T01:44:09;17.20;99.90
14061;DHT22;7105;43.616;1.434;2023-06-10T01:46:34;17.00;99.90
14061;DHT22;7105;43.616;1.434;2023-06-10T01:49:00;17.00;99.90
14061;DHT22;7105;43.616;1.434;2023-06-10T01:51:26;17.10;99.90
14061;DHT22;7105;43.616;1.434;2023-06-10T01:53:52;17.10;99.90
14061;DHT22;7105;43.616;1.434;2023-06-10T01:56:18;17.20;99.90
14061;DHT22;7105;43.616;1.434;2023-06-10T01:58:46;17.20;99.90
14061;DHT22;7105;43.616;1.434;2023-06-10T02:01:11;17.20;99.90
14061;DHT22;7105;43.616;1.434;2023-06-10T02:03:37;17.10;99.90
14061;DHT22;7105;43.616;1.434;2023-06-10T02:06:03;17.10;99.90
14061;DHT22;7105;43.616;1.434;2023-06-10T02:08:29;17.10;99.90
14061;DHT22;7105;43.616;1.434;2023-06-10T02:10:55;17.10;99.90
14061;DHT22;7105;43.616;1.434;2023-06-10T02:13:20;17.10;99.90
14061;DHT22;7105;43.616;1.434;2023-06-10T02:15:46;17.10;99.90
14061;DHT22;7105;43.616;1.434;2023-06-10T02:18:12;17.10;99.90
14061;DHT22;7105;43.616;1.434;2023-06-10T02:20:38;17.10;99.90
14061;DHT22;7105;43.616;1.434;2023-06-10T02:23:04;17.10;99.90
14061;DHT22;7105;43.616;1.434;2023-06-10T02:25:30;17.00;99.90
14061;DHT22;7105;43.616;1.434;2023-06-10T02:27:55;17.00;99.90
14061;DHT22;7105;43.616;1.434;2023-06-10T02:30:21;17.10;99.90
14061;DHT22;7105;43.616;1.434;2023-06-10T02:32:47;17.00;99.90
14061;DHT22;7105;43.616;1.434;2023-06-10T02:35:13;17.00;99.90
14061;DHT22;7105;43.616;1.434;2023-06-10T02:37:39;17.00;99.90
14061;DHT22;7105;43.616;1.434;2023-06-10T02:40:06;17.10;99.90
14061;DHT22;7105;43.616;1.434;2023-06-10T02:42:32;17.10;99.90
14061;DHT22;7105;43.616;1.434;2023-06-10T02:44:58;17.10;99.90
14061;DHT22;7105;43.616;1.434;2023-06-10T02:47:27;17.10;99.90
14061;DHT22;7105;43.616;1.434;2023-06-10T02:49:53;17.00;99.90
14061;DHT22;7105;43.616;1.434;2023-06-10T02:52:18;17.00;99.90
14061;DHT22;7105;43.616;1.434;2023-06-10T02:54:44;17.00;99.90
14061;DHT22;7105;43.616;1.434;2023-06-10T02:57:11;16.90;99.90
14061;DHT22;7105;43.616;1.434;2023-06-10T02:59:36;16.90;99.90
14061;DHT22;7105;43.616;1.434;2023-06-10T03:02:02;16.80;99.90
14061;DHT22;7105;43.616;1.434;2023-06-10T03:04:28;16.80;99.90
14061;DHT22;7105;43.616;1.434;2023-06-10T03:06:54;16.80;99.90
14061;DHT22;7105;43.616;1.434;2023-06-10T03:09:20;16.70;99.90
14061;DHT22;7105;43.616;1.434;2023-06-10T03:11:46;16.80;99.90
14061;DHT22;7105;43.616;1.434;2023-06-10T03:14:12;16.80;99.90
14061;DHT22;7105;43.616;1.434;2023-06-10T03:16:38;16.70;99.90
14061;DHT22;7105;43.616;1.434;2023-06-10T03:19:06;16.70;99.90
14061;DHT22;7105;43.616;1.434;2023-06-10T03:21:36;16.70;99.90
14061;DHT22;7105;43.616;1.434;2023-06-10T03:24:03;16.70;99.90
14061;DHT22;7105;43.616;1.434;2023-06-10T03:26:29;16.70;99.90
14061;DHT22;7105;43.616;1.434;2023-06-10T03:28:54;16.80;99.90
14061;DHT22;7105;43.616;1.434;2023-06-10T03:31:20;16.80;99.90
14061;DHT22;7105;43.616;1.434;2023-06-10T03:33:45;16.80;99.90
14061;DHT22;7105;43.616;1.434;2023-06-10T03:36:11;16.80;99.90
14061;DHT22;7105;43.616;1.434;2023-06-10T03:38:37;16.70;99.90
14061;DHT22;7105;43.616;1.434;2023-06-10T03:41:03;16.70;99.90
14061;DHT22;7105;43.616;1.434;2023-06-10T03:43:28;16.70;99.90
14061;DHT22;7105;43.616;1.434;2023-06-10T03:45:54;16.80;99.90
14061;DHT22;7105;43.616;1.434;2023-06-10T03:48:20;16.70;99.90
14061;DHT22;7105;43.616;1.434;2023-06-10T03:50:46;16.70;99.90
14061;DHT22;7105;43.616;1.434;2023-06-10T03:53:13;16.70;99.90
14061;DHT22;7105;43.616;1.434;2023-06-10T03:55:38;16.70;99.90
14061;DHT22;7105;43.616;1.434;2023-06-10T03:58:04;16.70;99.90
14061;DHT22;7105;43.616;1.434;2023-06-10T04:00:30;16.70;99.90
14061;DHT22;7105;43.616;1.434;2023-06-10T04:02:56;16.60;99.90
14061;DHT22;7105;43.616;1.434;2023-06-10T04:05:23;16.40;99.90
14061;DHT22;7105;43.616;1.434;2023-06-10T04:07:49;16.30;99.90
14061;DHT22;7105;43.616;1.434;2023-06-10T04:10:15;16.30;99.90
14061;DHT22;7105;43.616;1.434;2023-06-10T04:12:41;16.40;99.90
14061;DHT22;7105;43.616;1.434;2023-06-10T04:15:07;16.40;99.90
14061;DHT22;7105;43.616;1.434;2023-06-10T04:17:34;16.50;99.90
14061;DHT22;7105;43.616;1.434;2023-06-10T04:20:00;16.50;99.90
14061;DHT22;7105;43.616;1.434;2023-06-10T04:22:26;16.50;99.90
14061;DHT22;7105;43.616;1.434;2023-06-10T04:24:52;16.60;99.90
14061;DHT22;7105;43.616;1.434;2023-06-10T04:27:18;17.00;99.90
14061;DHT22;7105;43.616;1.434;2023-06-10T04:29:44;17.90;99.90
14061;DHT22;7105;43.616;1.434;2023-06-10T04:32:10;18.50;99.90
14061;DHT22;7105;43.616;1.434;2023-06-10T04:34:36;19.30;99.90
14061;DHT22;7105;43.616;1.434;2023-06-10T04:37:04;19.90;99.90
14061;DHT22;7105;43.616;1.434;2023-06-10T04:39:30;20.60;99.90
14061;DHT22;7105;43.616;1.434;2023-06-10T04:41:56;20.90;99.90
14061;DHT22;7105;43.616;1.434;2023-06-10T04:44:22;20.90;99.90
14061;DHT22;7105;43.616;1.434;2023-06-10T04:46:47;21.20;99.90
14061;DHT22;7105;43.616;1.434;2023-06-10T04:49:13;21.60;99.90
14061;DHT22;7105;43.616;1.434;2023-06-10T04:51:41;21.20;99.90
14061;DHT22;7105;43.616;1.434;2023-06-10T04:54:07;20.50;99.90
14061;DHT22;7105;43.616;1.434;2023-06-10T04:56:33;19.40;99.90
14061;DHT22;7105;43.616;1.434;2023-06-10T04:59:02;20.30;99.90
14061;DHT22;7105;43.616;1.434;2023-06-10T05:01:27;20.80;99.90
14061;DHT22;7105;43.616;1.434;2023-06-10T05:03:53;20.30;99.90
14061;DHT22;7105;43.616;1.434;2023-06-10T05:06:20;21.00;99.90
14061;DHT22;7105;43.616;1.434;2023-06-10T05:08:46;22.60;99.90
14061;DHT22;7105;43.616;1.434;2023-06-10T05:11:12;24.10;99.90
14061;DHT22;7105;43.616;1.434;2023-06-10T05:13:38;24.50;99.90
14061;DHT22;7105;43.616;1.434;2023-06-10T05:16:05;25.50;99.90
14061;DHT22;7105;43.616;1.434;2023-06-10T05:18:32;25.20;99.90
14061;DHT22;7105;43.616;1.434;2023-06-10T05:20:57;25.90;99.90
14061;DHT22;7105;43.616;1.434;2023-06-10T05:23:23;26.50;99.90
14061;DHT22;7105;43.616;1.434;2023-06-10T05:25:48;25.40;99.90
14061;DHT22;7105;43.616;1.434;2023-06-10T05:28:15;26.90;99.90
14061;DHT22;7105;43.616;1.434;2023-06-10T05:30:40;26.00;99.90
14061;DHT22;7105;43.616;1.434;2023-06-10T05:33:06;26.70;99.90
14061;DHT22;7105;43.616;1.434;2023-06-10T05:35:32;26.90;99.90
14061;DHT22;7105;43.616;1.434;2023-06-10T05:37:57;27.90;99.90
14061;DHT22;7105;43.616;1.434;2023-06-10T05:40:23;28.60;99.90
14061;DHT22;7105;43.616;1.434;2023-06-10T05:42:49;29.60;99.90
14061;DHT22;7105;43.616;1.434;2023-06-10T05:45:14;29.40;99.90
14061;DHT22;7105;43.616;1.434;2023-06-10T05:47:40;29.80;99.90
14061;DHT22;7105;43.616;1.434;2023-06-10T05:50:06;28.80;99.90
14061;DHT22;7105;43.616;1.434;2023-06-10T05:52:36;30.10;99.90
14061;DHT22;7105;43.616;1.434;2023-06-10T05:55:05;29.90;99.90
14061;DHT22;7105;43.616;1.434;2023-06-10T05:57:31;29.30;99.90
14061;DHT22;7105;43.616;1.434;2023-06-10T05:59:59;30.20;99.90
14061;DHT22;7105;43.616;1.434;2023-06-10T06:02:25;29.90;99.90
14061;DHT22;7105;43.616;1.434;2023-06-10T06:04:51;30.50;99.90
14061;DHT22;7105;43.616;1.434;2023-06-10T06:07:16;31.80;99.90
14061;DHT22;7105;43.616;1.434;2023-06-10T06:09:42;32.30;99.90
14061;DHT22;7105;43.616;1.434;2023-06-10T06:12:08;31.80;99.90
14061;DHT22;7105;43.616;1.434;2023-06-10T06:14:37;31.70;99.90
14061;DHT22;7105;43.616;1.434;2023-06-10T06:17:05;32.30;99.90
14061;DHT22;7105;43.616;1.434;2023-06-10T06:19:30;32.30;99.90
14061;DHT22;7105;43.616;1.434;2023-06-10T06:21:56;32.20;99.90
14061;DHT22;7105;43.616;1.434;2023-06-10T06:24:22;32.60;99.90
14061;DHT22;7105;43.616;1.434;2023-06-10T06:26:48;32.10;99.90
14061;DHT22;7105;43.616;1.434;2023-06-10T06:29:13;33.00;99.90
14061;DHT22;7105;43.616;1.434;2023-06-10T06:31:39;33.50;99.90
14061;DHT22;7105;43.616;1.434;2023-06-10T06:34:05;33.60;99.90
14061;DHT22;7105;43.616;1.434;2023-06-10T06:36:30;33.70;99.90
14061;DHT22;7105;43.616;1.434;2023-06-10T06:38:56;33.80;99.90
14061;DHT22;7105;43.616;1.434;2023-06-10T06:41:25;34.30;99.90
14061;DHT22;7105;43.616;1.434;2023-06-10T06:43:51;34.70;99.90
14061;DHT22;7105;43.616;1.434;2023-06-10T06:46:17;34.20;99.90
14061;DHT22;7105;43.616;1.434;2023-06-10T06:48:42;34.20;99.90
14061;DHT22;7105;43.616;1.434;2023-06-10T06:51:08;34.10;99.90
14061;DHT22;7105;43.616;1.434;2023-06-10T06:53:34;34.60;99.90
14061;DHT22;7105;43.616;1.434;2023-06-10T06:56:01;33.60;99.90
14061;DHT22;7105;43.616;1.434;2023-06-10T06:58:27;34.50;99.90
14061;DHT22;7105;43.616;1.434;2023-06-10T07:00:53;36.30;99.90
14061;DHT22;7105;43.616;1.434;2023-06-10T07:03:18;37.00;99.90
14061;DHT22;7105;43.616;1.434;2023-06-10T07:05:44;36.50;99.90
14061;DHT22;7105;43.616;1.434;2023-06-10T07:08:10;36.90;99.90
14061;DHT22;7105;43.616;1.434;2023-06-10T07:10:37;35.80;99.90
14061;DHT22;7105;43.616;1.434;2023-06-10T07:13:03;34.50;99.90
14061;DHT22;7105;43.616;1.434;2023-06-10T07:15:29;34.30;99.90
14061;DHT22;7105;43.616;1.434;2023-06-10T07:17:54;35.00;99.90
14061;DHT22;7105;43.616;1.434;2023-06-10T07:20:21;34.40;99.90
14061;DHT22;7105;43.616;1.434;2023-06-10T07:22:46;33.30;99.90
14061;DHT22;7105;43.616;1.434;2023-06-10T07:25:12;34.50;99.90
14061;DHT22;7105;43.616;1.434;2023-06-10T07:27:38;36.00;99.90
14061;DHT22;7105;43.616;1.434;2023-06-10T07:30:05;35.50;99.90
14061;DHT22;7105;43.616;1.434;2023-06-10T07:32:33;36.50;99.90
14061;DHT22;7105;43.616;1.434;2023-06-10T07:34:59;38.30;99.90
14061;DHT22;7105;43.616;1.434;2023-06-10T07:37:25;36.20;99.90
14061;DHT22;7105;43.616;1.434;2023-06-10T07:39:50;37.10;99.90
14061;DHT22;7105;43.616;1.434;2023-06-10T07:42:16;36.10;99.90
14061;DHT22;7105;43.616;1.434;2023-06-10T07:44:42;36.90;99.90
14061;DHT22;7105;43.616;1.434;2023-06-10T07:47:08;36.40;99.90
14061;DHT22;7105;43.616;1.434;2023-06-10T07:49:33;35.80;99.90
14061;DHT22;7105;43.616;1.434;2023-06-10T07:51:59;37.20;99.90
14061;DHT22;7105;43.616;1.434;2023-06-10T07:54:24;38.60;99.90
14061;DHT22;7105;43.616;1.434;2023-06-10T07:56:50;38.70;99.90
14061;DHT22;7105;43.616;1.434;2023-06-10T07:59:18;38.90;99.90
14061;DHT22;7105;43.616;1.434;2023-06-10T08:01:44;37.10;99.90
14061;DHT22;7105;43.616;1.434;2023-06-10T08:04:09;36.90;99.90
14061;DHT22;7105;43.616;1.434;2023-06-10T08:06:35;35.50;99.90
14061;DHT22;7105;43.616;1.434;2023-06-10T08:09:03;35.80;99.90
14061;DHT22;7105;43.616;1.434;2023-06-10T08:11:29;37.00;99.90
14061;DHT22;7105;43.616;1.434;2023-06-10T08:13:55;36.80;99.90
14061;DHT22;7105;43.616;1.434;2023-06-10T08:16:21;35.40;99.90
14061;DHT22;7105;43.616;1.434;2023-06-10T08:18:46;36.70;99.90
14061;DHT22;7105;43.616;1.434;2023-06-10T08:21:13;36.60;99.90
14061;DHT22;7105;43.616;1.434;2023-06-10T08:23:38;35.00;99.90
14061;DHT22;7105;43.616;1.434;2023-06-10T08:26:04;36.20;99.90
14061;DHT22;7105;43.616;1.434;2023-06-10T08:28:30;36.30;99.90
14061;DHT22;7105;43.616;1.434;2023-06-10T08:30:55;35.50;99.90
14061;DHT22;7105;43.616;1.434;2023-06-10T08:33:21;37.70;99.90
14061;DHT22;7105;43.616;1.434;2023-06-10T08:35:47;39.20;99.90
14061;DHT22;7105;43.616;1.434;2023-06-10T08:38:12;37.10;99.90
14061;DHT22;7105;43.616;1.434;2023-06-10T08:40:38;35.60;99.90
14061;DHT22;7105;43.616;1.434;2023-06-10T08:43:07;35.50;99.90
14061;DHT22;7105;43.616;1.434;2023-06-10T08:45:36;35.00;99.90
14061;DHT22;7105;43.616;1.434;2023-06-10T08:48:05;36.20;99.90
14061;DHT22;7105;43.616;1.434;2023-06-10T08:50:35;34.40;99.90
14061;DHT22;7105;43.616;1.434;2023-06-10T08:53:06;35.60;99.90
14061;DHT22;7105;43.616;1.434;2023-06-10T08:55:35;35.20;99.90
14061;DHT22;7105;43.616;1.434;2023-06-10T08:58:02;34.60;99.90
14061;DHT22;7105;43.616;1.434;2023-06-10T09:00:29;32.90;99.90
14061;DHT22;7105;43.616;1.434;2023-06-10T09:02:58;31.20;99.90
14061;DHT22;7105;43.616;1.434;2023-06-10T09:05:24;30.70;99.90
14061;DHT22;7105;43.616;1.434;2023-06-10T09:07:51;29.60;99.90
14061;DHT22;7105;43.616;1.434;2023-06-10T09:10:17;29.10;99.90
14061;DHT22;7105;43.616;1.434;2023-06-10T09:12:43;30.50;99.90
14061;DHT22;7105;43.616;1.434;2023-06-10T09:15:09;29.60;99.90
14061;DHT22;7105;43.616;1.434;2023-06-10T09:17:37;28.60;99.90
14061;DHT22;7105;43.616;1.434;2023-06-10T09:20:04;28.30;99.90
14061;DHT22;7105;43.616;1.434;2023-06-10T09:22:29;28.40;99.90
14061;DHT22;7105;43.616;1.434;2023-06-10T09:25:12;27.90;99.90
14061;DHT22;7105;43.616;1.434;2023-06-10T09:32:56;27.50;99.90
14061;DHT22;7105;43.616;1.434;2023-06-10T09:35:23;26.90;99.90
14061;DHT22;7105;43.616;1.434;2023-06-10T09:37:59;27.10;99.90
14061;DHT22;7105;43.616;1.434;2023-06-10T09:40:26;26.70;99.90
14061;DHT22;7105;43.616;1.434;2023-06-10T09:42:58;26.70;99.90
14061;DHT22;7105;43.616;1.434;2023-06-10T09:45:29;27.10;99.90
14061;DHT22;7105;43.616;1.434;2023-06-10T09:47:55;27.30;99.90
14061;DHT22;7105;43.616;1.434;2023-06-10T09:50:21;27.10;99.90
14061;DHT22;7105;43.616;1.434;2023-06-10T09:52:47;27.20;99.90
14061;DHT22;7105;43.616;1.434;2023-06-10T09:55:14;27.40;99.90
14061;DHT22;7105;43.616;1.434;2023-06-10T09:57:40;27.20;99.90
14061;DHT22;7105;43.616;1.434;2023-06-10T10:00:08;27.00;99.90
14061;DHT22;7105;43.616;1.434;2023-06-10T10:05:13;26.90;99.90
14061;DHT22;7105;43.616;1.434;2023-06-10T10:07:40;26.50;99.90
14061;DHT22;7105;43.616;1.434;2023-06-10T10:10:06;26.20;99.90
14061;DHT22;7105;43.616;1.434;2023-06-10T10:12:34;26.90;99.90
14061;DHT22;7105;43.616;1.434;2023-06-10T10:15:02;26.90;99.90
14061;DHT22;7105;43.616;1.434;2023-06-10T10:17:28;26.90;99.90
14061;DHT22;7105;43.616;1.434;2023-06-10T10:20:00;27.10;99.90
14061;DHT22;7105;43.616;1.434;2023-06-10T10:22:31;27.10;99.90
14061;DHT22;7105;43.616;1.434;2023-06-10T10:25:02;27.30;99.90
14061;DHT22;7105;43.616;1.434;2023-06-10T10:27:54;27.60;99.90
14061;DHT22;7105;43.616;1.434;2023-06-10T10:30:22;27.30;99.90
14061;DHT22;7105;43.616;1.434;2023-06-10T10:33:27;27.60;99.90
14061;DHT22;7105;43.616;1.434;2023-06-10T10:35:56;27.30;99.90
14061;DHT22;7105;43.616;1.434;2023-06-10T10:38:23;26.90;99.90
14061;DHT22;7105;43.616;1.434;2023-06-10T10:40:50;27.50;99.90
14061;DHT22;7105;43.616;1.434;2023-06-10T10:43:17;27.70;99.90
14061;DHT22;7105;43.616;1.434;2023-06-10T10:46:08;27.60;99.90
14061;DHT22;7105;43.616;1.434;2023-06-10T10:48:38;26.50;99.90
14061;DHT22;7105;43.616;1.434;2023-06-10T10:51:03;26.50;99.90
14061;DHT22;7105;43.616;1.434;2023-06-10T10:53:29;26.90;99.90
14061;DHT22;7105;43.616;1.434;2023-06-10T10:58:25;27.10;99.90
14061;DHT22;7105;43.616;1.434;2023-06-10T11:00:51;27.20;99.90
14061;DHT22;7105;43.616;1.434;2023-06-10T11:03:17;27.40;99.90
14061;DHT22;7105;43.616;1.434;2023-06-10T11:05:44;27.50;99.90
14061;DHT22;7105;43.616;1.434;2023-06-10T11:08:14;27.60;99.90
14061;DHT22;7105;43.616;1.434;2023-06-10T11:10:42;27.70;99.90
14061;DHT22;7105;43.616;1.434;2023-06-10T11:13:18;27.60;99.90
14061;DHT22;7105;43.616;1.434;2023-06-10T11:15:46;27.50;99.90
14061;DHT22;7105;43.616;1.434;2023-06-10T11:18:29;27.40;99.90
14061;DHT22;7105;43.616;1.434;2023-06-10T11:21:04;27.30;99.90
14061;DHT22;7105;43.616;1.434;2023-06-10T11:23:32;27.40;99.90
14061;DHT22;7105;43.616;1.434;2023-06-10T11:28:40;27.70;99.90
14061;DHT22;7105;43.616;1.434;2023-06-10T11:31:06;27.30;99.90
14061;DHT22;7105;43.616;1.434;2023-06-10T11:33:32;27.70;99.90
14061;DHT22;7105;43.616;1.434;2023-06-10T11:35:58;28.20;99.90
14061;DHT22;7105;43.616;1.434;2023-06-10T11:38:24;27.80;99.90
14061;DHT22;7105;43.616;1.434;2023-06-10T11:40:51;28.10;99.90
14061;DHT22;7105;43.616;1.434;2023-06-10T11:43:17;28.40;99.90
14061;DHT22;7105;43.616;1.434;2023-06-10T11:45:44;28.00;99.90
14061;DHT22;7105;43.616;1.434;2023-06-10T11:48:10;27.90;99.90
14061;DHT22;7105;43.616;1.434;2023-06-10T11:50:36;27.60;99.90
14061;DHT22;7105;43.616;1.434;2023-06-10T11:53:03;27.70;99.90
14061;DHT22;7105;43.616;1.434;2023-06-10T11:55:48;27.90;99.90
14061;DHT22;7105;43.616;1.434;2023-06-10T11:58:18;28.30;99.90
14061;DHT22;7105;43.616;1.434;2023-06-10T12:00:51;28.20;99.90
14061;DHT22;7105;43.616;1.434;2023-06-10T12:03:19;28.40;99.90
14061;DHT22;7105;43.616;1.434;2023-06-10T12:08:24;28.80;99.90
14061;DHT22;7105;43.616;1.434;2023-06-10T12:10:53;29.00;99.90
14061;DHT22;7105;43.616;1.434;2023-06-10T12:13:19;28.50;99.90
14061;DHT22;7105;43.616;1.434;2023-06-10T12:15:45;28.40;99.90
14061;DHT22;7105;43.616;1.434;2023-06-10T12:18:18;28.40;99.90
14061;DHT22;7105;43.616;1.434;2023-06-10T12:20:44;28.10;99.90
14061;DHT22;7105;43.616;1.434;2023-06-10T12:23:15;28.00;99.90
14061;DHT22;7105;43.616;1.434;2023-06-10T12:25:55;28.30;99.90
14061;DHT22;7105;43.616;1.434;2023-06-10T12:28:26;28.60;99.90
14061;DHT22;7105;43.616;1.434;2023-06-10T12:31:05;29.10;99.90
14061;DHT22;7105;43.616;1.434;2023-06-10T12:33:34;29.10;99.90
14061;DHT22;7105;43.616;1.434;2023-06-10T12:36:00;29.10;99.90
14061;DHT22;7105;43.616;1.434;2023-06-10T12:38:26;29.30;99.90
14061;DHT22;7105;43.616;1.434;2023-06-10T12:40:53;29.00;99.90
14061;DHT22;7105;43.616;1.434;2023-06-10T12:43:25;29.10;99.90
14061;DHT22;7105;43.616;1.434;2023-06-10T12:45:51;29.20;99.90
14061;DHT22;7105;43.616;1.434;2023-06-10T12:48:19;29.20;99.90
14061;DHT22;7105;43.616;1.434;2023-06-10T12:50:51;29.50;99.90
14061;DHT22;7105;43.616;1.434;2023-06-10T12:53:16;29.30;99.90
14061;DHT22;7105;43.616;1.434;2023-06-10T12:55:43;28.90;99.90
14061;DHT22;7105;43.616;1.434;2023-06-10T12:58:10;28.70;99.90
14061;DHT22;7105;43.616;1.434;2023-06-10T13:00:36;28.10;99.90
14061;DHT22;7105;43.616;1.434;2023-06-10T13:03:03;28.70;99.90
14061;DHT22;7105;43.616;1.434;2023-06-10T13:05:31;28.60;99.90
14061;DHT22;7105;43.616;1.434;2023-06-10T13:07:57;28.50;99.90
14061;DHT22;7105;43.616;1.434;2023-06-10T13:10:24;28.70;99.90
14061;DHT22;7105;43.616;1.434;2023-06-10T13:12:51;28.70;99.90
14061;DHT22;7105;43.616;1.434;2023-06-10T13:15:17;28.40;99.90
14061;DHT22;7105;43.616;1.434;2023-06-10T13:17:44;28.00;99.90
14061;DHT22;7105;43.616;1.434;2023-06-10T13:20:12;28.10;99.90
14061;DHT22;7105;43.616;1.434;2023-06-10T13:22:37;27.60;99.90
14061;DHT22;7105;43.616;1.434;2023-06-10T13:25:04;27.70;99.90
14061;DHT22;7105;43.616;1.434;2023-06-10T13:27:35;27.70;99.90
14061;DHT22;7105;43.616;1.434;2023-06-10T13:30:05;28.30;99.90
14061;DHT22;7105;43.616;1.434;2023-06-10T13:32:34;28.40;99.90
14061;DHT22;7105;43.616;1.434;2023-06-10T13:35:00;28.40;99.90
14061;DHT22;7105;43.616;1.434;2023-06-10T13:37:26;28.30;99.90
14061;DHT22;7105;43.616;1.434;2023-06-10T13:39:51;27.80;99.90
14061;DHT22;7105;43.616;1.434;2023-06-10T13:42:20;27.70;99.90
14061;DHT22;7105;43.616;1.434;2023-06-10T13:44:47;27.90;99.90
14061;DHT22;7105;43.616;1.434;2023-06-10T13:47:14;28.20;99.90
14061;DHT22;7105;43.616;1.434;2023-06-10T13:49:39;27.80;99.90
14061;DHT22;7105;43.616;1.434;2023-06-10T13:52:06;27.70;99.90
14061;DHT22;7105;43.616;1.434;2023-06-10T13:54:35;28.20;99.90
14061;DHT22;7105;43.616;1.434;2023-06-10T13:57:03;28.70;99.90
14061;DHT22;7105;43.616;1.434;2023-06-10T13:59:29;28.60;99.90
14061;DHT22;7105;43.616;1.434;2023-06-10T14:01:55;28.30;99.90
14061;DHT22;7105;43.616;1.434;2023-06-10T14:04:22;28.10;99.90
14061;DHT22;7105;43.616;1.434;2023-06-10T14:06:47;28.70;99.90
14061;DHT22;7105;43.616;1.434;2023-06-10T14:09:14;28.30;99.90
14061;DHT22;7105;43.616;1.434;2023-06-10T14:11:39;28.20;99.90
14061;DHT22;7105;43.616;1.434;2023-06-10T14:14:05;28.70;99.90
14061;DHT22;7105;43.616;1.434;2023-06-10T14:16:31;28.90;99.90
14061;DHT22;7105;43.616;1.434;2023-06-10T14:18:57;29.00;99.90
14061;DHT22;7105;43.616;1.434;2023-06-10T14:21:23;28.70;99.90
14061;DHT22;7105;43.616;1.434;2023-06-10T14:23:48;29.00;99.90
14061;DHT22;7105;43.616;1.434;2023-06-10T14:26:15;28.70;99.90
14061;DHT22;7105;43.616;1.434;2023-06-10T14:28:41;28.80;99.90
14061;DHT22;7105;43.616;1.434;2023-06-10T14:31:06;29.00;99.90
14061;DHT22;7105;43.616;1.434;2023-06-10T14:33:33;28.90;99.90
14061;DHT22;7105;43.616;1.434;2023-06-10T14:35:58;29.30;99.90
14061;DHT22;7105;43.616;1.434;2023-06-10T14:38:24;29.50;99.90
14061;DHT22;7105;43.616;1.434;2023-06-10T14:40:50;29.30;99.90
14061;DHT22;7105;43.616;1.434;2023-06-10T14:43:15;29.20;99.90
14061;DHT22;7105;43.616;1.434;2023-06-10T14:45:41;28.80;99.90
14061;DHT22;7105;43.616;1.434;2023-06-10T14:48:07;29.20;99.90
14061;DHT22;7105;43.616;1.434;2023-06-10T14:50:35;29.10;99.90
14061;DHT22;7105;43.616;1.434;2023-06-10T14:53:00;29.10;99.90
14061;DHT22;7105;43.616;1.434;2023-06-10T14:55:26;29.30;99.90
14061;DHT22;7105;43.616;1.434;2023-06-10T14:57:52;29.30;99.90
14061;DHT22;7105;43.616;1.434;2023-06-10T15:00:18;29.40;99.90
14061;DHT22;7105;43.616;1.434;2023-06-10T15:02:48;29.20;99.90
14061;DHT22;7105;43.616;1.434;2023-06-10T15:05:14;29.30;99.90
14061;DHT22;7105;43.616;1.434;2023-06-10T15:07:41;29.20;99.90
14061;DHT22;7105;43.616;1.434;2023-06-10T15:10:07;29.30;99.90
14061;DHT22;7105;43.616;1.434;2023-06-10T15:12:34;29.40;99.90
14061;DHT22;7105;43.616;1.434;2023-06-10T15:14:59;29.30;99.90
14061;DHT22;7105;43.616;1.434;2023-06-10T15:17:25;29.40;99.90
14061;DHT22;7105;43.616;1.434;2023-06-10T15:19:51;29.20;99.90
14061;DHT22;7105;43.616;1.434;2023-06-10T15:22:16;29.20;99.90
14061;DHT22;7105;43.616;1.434;2023-06-10T15:24:42;29.10;99.90
14061;DHT22;7105;43.616;1.434;2023-06-10T15:27:08;29.10;99.90
14061;DHT22;7105;43.616;1.434;2023-06-10T15:29:34;28.90;99.90
14061;DHT22;7105;43.616;1.434;2023-06-10T15:32:00;28.30;99.90
14061;DHT22;7105;43.616;1.434;2023-06-10T15:34:25;28.40;99.90
14061;DHT22;7105;43.616;1.434;2023-06-10T15:36:51;28.90;99.90
14061;DHT22;7105;43.616;1.434;2023-06-10T15:39:17;28.90;99.90
14061;DHT22;7105;43.616;1.434;2023-06-10T15:41:44;28.70;99.90
14061;DHT22;7105;43.616;1.434;2023-06-10T15:44:10;28.90;99.90
14061;DHT22;7105;43.616;1.434;2023-06-10T15:46:35;29.10;99.90
14061;DHT22;7105;43.616;1.434;2023-06-10T15:49:03;28.70;99.90
14061;DHT22;7105;43.616;1.434;2023-06-10T15:51:29;28.70;99.90
14061;DHT22;7105;43.616;1.434;2023-06-10T15:53:55;28.40;99.90
14061;DHT22;7105;43.616;1.434;2023-06-10T15:56:21;28.30;99.90
14061;DHT22;7105;43.616;1.434;2023-06-10T15:58:48;28.30;99.90
14061;DHT22;7105;43.616;1.434;2023-06-10T16:01:14;28.30;99.90
14061;DHT22;7105;43.616;1.434;2023-06-10T16:03:40;28.20;99.90